sensor_id;sensor_type;location;lat;lon;timestamp;temperature;humidity
78297;DHT22;67555;47.660;19.622;2024-01-06T00:01:01;8.60;71.70
78297;DHT22;67555;47.660;19.622;2024-01-06T00:03:27;8.60;71.70
78297;DHT22;67555;47.660;19.622;2024-01-06T00:05:52;8.60;71.70
78297;DHT22;67555;47.660;19.622;2024-01-06T00:08:18;8.70;71.60
78297;DHT22;67555;47.660;19.622;2024-01-06T00:10:44;8.80;71.60
78297;DHT22;67555;47.660;19.622;2024-01-06T00:13:10;8.80;71.60
78297;DHT22;67555;47.660;19.622;2024-01-06T00:15:36;8.80;71.50
78297;DHT22;67555;47.660;19.622;2024-01-06T00:18:02;8.80;71.50
78297;DHT22;67555;47.660;19.622;2024-01-06T00:20:28;8.80;71.60
78297;DHT22;67555;47.660;19.622;2024-01-06T00:22:53;8.80;71.70
78297;DHT22;67555;47.660;19.622;2024-01-06T00:25:19;8.70;71.90
78297;DHT22;67555;47.660;19.622;2024-01-06T00:27:45;8.60;72.00
78297;DHT22;67555;47.660;19.622;2024-01-06T00:30:11;8.60;72.20
78297;DHT22;67555;47.660;19.622;2024-01-06T00:32:36;8.60;72.20
78297;DHT22;67555;47.660;19.622;2024-01-06T00:35:02;8.60;72.30
78297;DHT22;67555;47.660;19.622;2024-01-06T00:37:28;8.60;72.40
78297;DHT22;67555;47.660;19.622;2024-01-06T00:39:54;8.60;72.50
78297;DHT22;67555;47.660;19.622;2024-01-06T00:42:19;8.50;72.70
78297;DHT22;67555;47.660;19.622;2024-01-06T00:44:45;8.40;72.90
78297;DHT22;67555;47.660;19.622;2024-01-06T00:47:11;8.40;73.20
78297;DHT22;67555;47.660;19.622;2024-01-06T00:49:37;8.30;73.40
78297;DHT22;67555;47.660;19.622;2024-01-06T00:52:03;8.20;73.50
78297;DHT22;67555;47.660;19.622;2024-01-06T00:54:28;8.20;73.50
78297;DHT22;67555;47.660;19.622;2024-01-06T00:56:54;8.20;73.60
78297;DHT22;67555;47.660;19.622;2024-01-06T00:59:22;8.20;73.60
78297;DHT22;67555;47.660;19.622;2024-01-06T01:01:47;8.20;73.60
78297;DHT22;67555;47.660;19.622;2024-01-06T01:04:13;8.20;73.70
78297;DHT22;67555;47.660;19.622;2024-01-06T01:06:39;8.20;73.80
78297;DHT22;67555;47.660;19.622;2024-01-06T01:09:04;8.20;73.70
78297;DHT22;67555;47.660;19.622;2024-01-06T01:11:30;8.30;73.70
78297;DHT22;67555;47.660;19.622;2024-01-06T01:13:56;8.30;73.80
78297;DHT22;67555;47.660;19.622;2024-01-06T01:16:22;8.30;73.60
78297;DHT22;67555;47.660;19.622;2024-01-06T01:18:47;8.30;73.70
78297;DHT22;67555;47.660;19.622;2024-01-06T01:21:14;8.30;73.70
78297;DHT22;67555;47.660;19.622;2024-01-06T01:23:40;8.40;73.70
78297;DHT22;67555;47.660;19.622;2024-01-06T01:26:06;8.40;73.60
78297;DHT22;67555;47.660;19.622;2024-01-06T01:28:32;8.40;73.50
78297;DHT22;67555;47.660;19.622;2024-01-06T01:30:57;8.40;73.40
78297;DHT22;67555;47.660;19.622;2024-01-06T01:33:23;8.40;73.50
78297;DHT22;67555;47.660;19.622;2024-01-06T01:35:49;8.30;73.40
78297;DHT22;67555;47.660;19.622;2024-01-06T01:38:15;8.30;73.40
78297;DHT22;67555;47.660;19.622;2024-01-06T01:40:40;8.20;73.60
78297;DHT22;67555;47.660;19.622;2024-01-06T01:43:18;8.20;73.60
78297;DHT22;67555;47.660;19.622;2024-01-06T01:45:45;8.20;73.50
78297;DHT22;67555;47.660;19.622;2024-01-06T01:48:11;8.10;73.60
78297;DHT22;67555;47.660;19.622;2024-01-06T01:50:36;8.10;73.60
78297;DHT22;67555;47.660;19.622;2024-01-06T01:53:02;8.00;73.70
78297;DHT22;67555;47.660;19.622;2024-01-06T01:55:28;8.00;73.80
78297;DHT22;67555;47.660;19.622;2024-01-06T01:57:54;8.00;73.80
78297;DHT22;67555;47.660;19.622;2024-01-06T02:00:20;8.00;73.70
78297;DHT22;67555;47.660;19.622;2024-01-06T02:02:46;8.00;73.70
78297;DHT22;67555;47.660;19.622;2024-01-06T02:05:11;8.00;73.70
78297;DHT22;67555;47.660;19.622;2024-01-06T02:07:37;8.00;73.90
78297;DHT22;67555;47.660;19.622;2024-01-06T02:10:03;8.00;74.10
78297;DHT22;67555;47.660;19.622;2024-01-06T02:12:29;8.00;74.10
78297;DHT22;67555;47.660;19.622;2024-01-06T02:14:55;8.00;74.10
78297;DHT22;67555;47.660;19.622;2024-01-06T02:17:21;8.00;74.10
78297;DHT22;67555;47.660;19.622;2024-01-06T02:19:47;8.00;74.10
78297;DHT22;67555;47.660;19.622;2024-01-06T02:22:12;8.10;74.00
78297;DHT22;67555;47.660;19.622;2024-01-06T02:24:38;8.20;73.90
78297;DHT22;67555;47.660;19.622;2024-01-06T02:27:04;8.30;73.80
78297;DHT22;67555;47.660;19.622;2024-01-06T02:29:31;8.40;73.60
78297;DHT22;67555;47.660;19.622;2024-01-06T02:31:56;8.40;73.50
78297;DHT22;67555;47.660;19.622;2024-01-06T02:34:23;8.40;73.60
78297;DHT22;67555;47.660;19.622;2024-01-06T02:36:49;8.40;73.60
78297;DHT22;67555;47.660;19.622;2024-01-06T02:39:14;8.50;73.40
78297;DHT22;67555;47.660;19.622;2024-01-06T02:41:40;8.60;73.20
78297;DHT22;67555;47.660;19.622;2024-01-06T02:44:06;8.50;73.20
78297;DHT22;67555;47.660;19.622;2024-01-06T02:46:31;8.60;73.20
78297;DHT22;67555;47.660;19.622;2024-01-06T02:48:57;8.60;73.10
78297;DHT22;67555;47.660;19.622;2024-01-06T02:51:23;8.60;72.90
78297;DHT22;67555;47.660;19.622;2024-01-06T02:53:48;8.60;72.80
78297;DHT22;67555;47.660;19.622;2024-01-06T02:56:14;8.70;72.70
78297;DHT22;67555;47.660;19.622;2024-01-06T02:58:40;8.70;72.60
78297;DHT22;67555;47.660;19.622;2024-01-06T03:01:06;8.70;72.60
78297;DHT22;67555;47.660;19.622;2024-01-06T03:03:32;8.80;72.60
78297;DHT22;67555;47.660;19.622;2024-01-06T03:05:57;8.80;72.50
78297;DHT22;67555;47.660;19.622;2024-01-06T03:08:23;8.80;72.60
78297;DHT22;67555;47.660;19.622;2024-01-06T03:10:49;8.80;72.50
78297;DHT22;67555;47.660;19.622;2024-01-06T03:13:15;8.80;72.50
78297;DHT22;67555;47.660;19.622;2024-01-06T03:15:40;8.80;72.50
78297;DHT22;67555;47.660;19.622;2024-01-06T03:18:06;8.80;72.50
78297;DHT22;67555;47.660;19.622;2024-01-06T03:20:32;8.80;72.50
78297;DHT22;67555;47.660;19.622;2024-01-06T03:22:58;8.80;72.30
78297;DHT22;67555;47.660;19.622;2024-01-06T03:25:23;8.80;72.30
78297;DHT22;67555;47.660;19.622;2024-01-06T03:27:49;8.80;72.40
78297;DHT22;67555;47.660;19.622;2024-01-06T03:30:15;8.80;72.40
78297;DHT22;67555;47.660;19.622;2024-01-06T03:32:40;8.80;72.40
78297;DHT22;67555;47.660;19.622;2024-01-06T03:35:06;8.80;72.50
78297;DHT22;67555;47.660;19.622;2024-01-06T03:37:33;8.80;72.50
78297;DHT22;67555;47.660;19.622;2024-01-06T03:39:59;8.80;72.40
78297;DHT22;67555;47.660;19.622;2024-01-06T03:42:24;8.90;72.30
78297;DHT22;67555;47.660;19.622;2024-01-06T03:44:50;8.90;72.30
78297;DHT22;67555;47.660;19.622;2024-01-06T03:47:16;8.90;72.20
78297;DHT22;67555;47.660;19.622;2024-01-06T03:49:41;8.90;72.10
78297;DHT22;67555;47.660;19.622;2024-01-06T03:52:07;9.00;71.90
78297;DHT22;67555;47.660;19.622;2024-01-06T03:54:33;9.00;71.80
78297;DHT22;67555;47.660;19.622;2024-01-06T03:56:59;9.00;71.70
78297;DHT22;67555;47.660;19.622;2024-01-06T03:59:25;9.00;71.60
78297;DHT22;67555;47.660;19.622;2024-01-06T04:01:50;9.00;71.50
78297;DHT22;67555;47.660;19.622;2024-01-06T04:04:16;9.00;71.50
78297;DHT22;67555;47.660;19.622;2024-01-06T04:06:42;9.00;71.30
78297;DHT22;67555;47.660;19.622;2024-01-06T04:09:08;9.00;71.30
78297;DHT22;67555;47.660;19.622;2024-01-06T04:11:34;9.00;71.30
78297;DHT22;67555;47.660;19.622;2024-01-06T04:14:00;9.00;71.40
78297;DHT22;67555;47.660;19.622;2024-01-06T04:16:29;8.90;71.50
78297;DHT22;67555;47.660;19.622;2024-01-06T04:18:54;9.00;71.40
78297;DHT22;67555;47.660;19.622;2024-01-06T04:21:21;9.00;71.40
78297;DHT22;67555;47.660;19.622;2024-01-06T04:23:47;9.00;71.20
78297;DHT22;67555;47.660;19.622;2024-01-06T04:26:13;9.00;71.10
78297;DHT22;67555;47.660;19.622;2024-01-06T04:28:39;9.00;71.10
78297;DHT22;67555;47.660;19.622;2024-01-06T04:31:04;8.90;71.20
78297;DHT22;67555;47.660;19.622;2024-01-06T04:33:32;9.00;71.20
78297;DHT22;67555;47.660;19.622;2024-01-06T04:35:59;9.00;71.20
78297;DHT22;67555;47.660;19.622;2024-01-06T04:38:24;9.00;71.10
78297;DHT22;67555;47.660;19.622;2024-01-06T04:40:50;9.00;71.00
78297;DHT22;67555;47.660;19.622;2024-01-06T04:43:16;9.00;70.80
78297;DHT22;67555;47.660;19.622;2024-01-06T04:45:41;9.00;70.80
78297;DHT22;67555;47.660;19.622;2024-01-06T04:48:07;9.10;70.60
78297;DHT22;67555;47.660;19.622;2024-01-06T04:50:33;9.10;70.50
78297;DHT22;67555;47.660;19.622;2024-01-06T04:52:58;9.20;70.30
78297;DHT22;67555;47.660;19.622;2024-01-06T04:55:24;9.20;70.10
78297;DHT22;67555;47.660;19.622;2024-01-06T04:57:50;9.20;70.00
78297;DHT22;67555;47.660;19.622;2024-01-06T05:00:16;9.20;69.90
78297;DHT22;67555;47.660;19.622;2024-01-06T05:02:42;9.20;69.70
78297;DHT22;67555;47.660;19.622;2024-01-06T05:05:07;9.20;69.70
78297;DHT22;67555;47.660;19.622;2024-01-06T05:07:33;9.20;69.80
78297;DHT22;67555;47.660;19.622;2024-01-06T05:09:59;9.20;69.60
78297;DHT22;67555;47.660;19.622;2024-01-06T05:12:25;9.20;69.60
78297;DHT22;67555;47.660;19.622;2024-01-06T05:14:50;9.20;69.60
78297;DHT22;67555;47.660;19.622;2024-01-06T05:17:16;9.20;69.60
78297;DHT22;67555;47.660;19.622;2024-01-06T05:19:42;9.20;69.50
78297;DHT22;67555;47.660;19.622;2024-01-06T05:22:07;9.20;69.60
78297;DHT22;67555;47.660;19.622;2024-01-06T05:24:33;9.10;69.70
78297;DHT22;67555;47.660;19.622;2024-01-06T05:26:59;9.00;69.80
78297;DHT22;67555;47.660;19.622;2024-01-06T05:29:24;9.00;70.00
78297;DHT22;67555;47.660;19.622;2024-01-06T05:31:52;8.90;70.20
78297;DHT22;67555;47.660;19.622;2024-01-06T05:34:17;8.90;70.20
78297;DHT22;67555;47.660;19.622;2024-01-06T05:36:43;8.90;70.20
78297;DHT22;67555;47.660;19.622;2024-01-06T05:39:09;8.80;70.30
78297;DHT22;67555;47.660;19.622;2024-01-06T05:41:39;8.80;70.30
78297;DHT22;67555;47.660;19.622;2024-01-06T05:44:05;8.80;70.30
78297;DHT22;67555;47.660;19.622;2024-01-06T05:46:31;8.90;70.20
78297;DHT22;67555;47.660;19.622;2024-01-06T05:48:57;8.90;70.10
78297;DHT22;67555;47.660;19.622;2024-01-06T05:51:23;8.90;70.00
78297;DHT22;67555;47.660;19.622;2024-01-06T05:53:49;9.00;69.90
78297;DHT22;67555;47.660;19.622;2024-01-06T05:56:25;8.90;69.80
78297;DHT22;67555;47.660;19.622;2024-01-06T05:58:51;9.00;69.80
78297;DHT22;67555;47.660;19.622;2024-01-06T06:01:18;9.00;69.70
78297;DHT22;67555;47.660;19.622;2024-01-06T06:03:45;9.00;69.70
78297;DHT22;67555;47.660;19.622;2024-01-06T06:06:11;9.00;69.80
78297;DHT22;67555;47.660;19.622;2024-01-06T06:08:37;9.00;69.70
78297;DHT22;67555;47.660;19.622;2024-01-06T06:11:02;9.00;69.70
78297;DHT22;67555;47.660;19.622;2024-01-06T06:13:39;9.00;69.70
78297;DHT22;67555;47.660;19.622;2024-01-06T06:16:06;9.00;69.60
78297;DHT22;67555;47.660;19.622;2024-01-06T06:18:32;9.00;69.50
78297;DHT22;67555;47.660;19.622;2024-01-06T06:20:59;9.00;69.50
78297;DHT22;67555;47.660;19.622;2024-01-06T06:23:28;9.10;69.50
78297;DHT22;67555;47.660;19.622;2024-01-06T06:25:54;9.10;69.40
78297;DHT22;67555;47.660;19.622;2024-01-06T06:28:20;9.10;69.40
78297;DHT22;67555;47.660;19.622;2024-01-06T06:30:45;9.20;69.30
78297;DHT22;67555;47.660;19.622;2024-01-06T06:33:11;9.20;69.40
78297;DHT22;67555;47.660;19.622;2024-01-06T06:35:37;9.20;69.40
78297;DHT22;67555;47.660;19.622;2024-01-06T06:38:03;9.20;69.30
78297;DHT22;67555;47.660;19.622;2024-01-06T06:40:29;9.20;69.30
78297;DHT22;67555;47.660;19.622;2024-01-06T06:42:55;9.20;69.20
78297;DHT22;67555;47.660;19.622;2024-01-06T06:45:21;9.20;69.20
78297;DHT22;67555;47.660;19.622;2024-01-06T06:47:52;9.30;69.20
78297;DHT22;67555;47.660;19.622;2024-01-06T06:50:18;9.30;69.20
78297;DHT22;67555;47.660;19.622;2024-01-06T06:52:44;9.30;69.10
78297;DHT22;67555;47.660;19.622;2024-01-06T06:55:10;9.30;69.20
78297;DHT22;67555;47.660;19.622;2024-01-06T06:57:36;9.30;69.20
78297;DHT22;67555;47.660;19.622;2024-01-06T07:00:02;9.40;69.10
78297;DHT22;67555;47.660;19.622;2024-01-06T07:02:28;9.40;69.00
78297;DHT22;67555;47.660;19.622;2024-01-06T07:04:54;9.40;69.00
78297;DHT22;67555;47.660;19.622;2024-01-06T07:07:19;9.40;69.10
78297;DHT22;67555;47.660;19.622;2024-01-06T07:09:45;9.30;69.30
78297;DHT22;67555;47.660;19.622;2024-01-06T07:12:10;9.30;69.40
78297;DHT22;67555;47.660;19.622;2024-01-06T07:14:36;9.40;69.40
78297;DHT22;67555;47.660;19.622;2024-01-06T07:17:04;9.40;69.40
78297;DHT22;67555;47.660;19.622;2024-01-06T07:19:33;9.40;69.30
78297;DHT22;67555;47.660;19.622;2024-01-06T07:21:59;9.40;69.40
78297;DHT22;67555;47.660;19.622;2024-01-06T07:24:24;9.40;69.40
78297;DHT22;67555;47.660;19.622;2024-01-06T07:26:51;9.40;69.60
78297;DHT22;67555;47.660;19.622;2024-01-06T07:29:16;9.40;69.70
78297;DHT22;67555;47.660;19.622;2024-01-06T07:31:42;9.40;69.80
78297;DHT22;67555;47.660;19.622;2024-01-06T07:34:08;9.40;69.70
78297;DHT22;67555;47.660;19.622;2024-01-06T07:36:33;9.40;69.70
78297;DHT22;67555;47.660;19.622;2024-01-06T07:38:59;9.40;69.70
78297;DHT22;67555;47.660;19.622;2024-01-06T07:41:25;9.30;69.90
78297;DHT22;67555;47.660;19.622;2024-01-06T07:43:50;9.30;70.10
78297;DHT22;67555;47.660;19.622;2024-01-06T07:46:19;9.30;70.10
78297;DHT22;67555;47.660;19.622;2024-01-06T07:48:45;9.20;70.30
78297;DHT22;67555;47.660;19.622;2024-01-06T07:51:10;9.20;70.40
78297;DHT22;67555;47.660;19.622;2024-01-06T07:53:36;9.20;70.50
78297;DHT22;67555;47.660;19.622;2024-01-06T07:56:02;9.20;70.60
78297;DHT22;67555;47.660;19.622;2024-01-06T07:58:28;9.20;70.80
78297;DHT22;67555;47.660;19.622;2024-01-06T08:00:54;9.10;71.10
78297;DHT22;67555;47.660;19.622;2024-01-06T08:03:19;9.00;71.30
78297;DHT22;67555;47.660;19.622;2024-01-06T08:05:45;9.00;71.40
78297;DHT22;67555;47.660;19.622;2024-01-06T08:08:12;9.00;71.60
78297;DHT22;67555;47.660;19.622;2024-01-06T08:10:40;9.00;71.70
78297;DHT22;67555;47.660;19.622;2024-01-06T08:13:06;9.10;71.80
78297;DHT22;67555;47.660;19.622;2024-01-06T08:15:31;9.20;71.50
78297;DHT22;67555;47.660;19.622;2024-01-06T08:17:57;9.20;71.40
78297;DHT22;67555;47.660;19.622;2024-01-06T08:20:23;9.30;71.30
78297;DHT22;67555;47.660;19.622;2024-01-06T08:22:50;9.20;71.40
78297;DHT22;67555;47.660;19.622;2024-01-06T08:25:16;9.20;71.60
78297;DHT22;67555;47.660;19.622;2024-01-06T08:27:43;9.30;71.60
78297;DHT22;67555;47.660;19.622;2024-01-06T08:30:17;9.40;71.50
78297;DHT22;67555;47.660;19.622;2024-01-06T08:35:34;9.50;71.20
78297;DHT22;67555;47.660;19.622;2024-01-06T08:38:08;9.50;71.10
78297;DHT22;67555;47.660;19.622;2024-01-06T08:40:34;9.60;71.10
78297;DHT22;67555;47.660;19.622;2024-01-06T08:43:04;9.50;71.10
78297;DHT22;67555;47.660;19.622;2024-01-06T08:45:29;9.50;71.20
78297;DHT22;67555;47.660;19.622;2024-01-06T08:47:56;9.50;71.20
78297;DHT22;67555;47.660;19.622;2024-01-06T08:50:22;9.50;71.20
78297;DHT22;67555;47.660;19.622;2024-01-06T08:52:48;9.50;71.20
78297;DHT22;67555;47.660;19.622;2024-01-06T08:55:13;9.60;71.20
78297;DHT22;67555;47.660;19.622;2024-01-06T08:57:45;9.60;71.10
78297;DHT22;67555;47.660;19.622;2024-01-06T09:00:15;9.70;71.00
78297;DHT22;67555;47.660;19.622;2024-01-06T09:02:41;9.80;70.80
78297;DHT22;67555;47.660;19.622;2024-01-06T09:05:26;9.80;70.70
78297;DHT22;67555;47.660;19.622;2024-01-06T09:07:51;9.80;70.80
78297;DHT22;67555;47.660;19.622;2024-01-06T09:10:17;9.70;70.80
78297;DHT22;67555;47.660;19.622;2024-01-06T09:12:45;9.60;71.20
78297;DHT22;67555;47.660;19.622;2024-01-06T09:15:10;9.50;71.50
78297;DHT22;67555;47.660;19.622;2024-01-06T09:17:36;9.50;71.60
78297;DHT22;67555;47.660;19.622;2024-01-06T09:20:05;9.50;71.70
78297;DHT22;67555;47.660;19.622;2024-01-06T09:22:31;9.50;71.70
78297;DHT22;67555;47.660;19.622;2024-01-06T09:24:57;9.60;71.80
78297;DHT22;67555;47.660;19.622;2024-01-06T09:27:23;9.60;71.70
78297;DHT22;67555;47.660;19.622;2024-01-06T09:29:50;9.70;71.60
78297;DHT22;67555;47.660;19.622;2024-01-06T09:32:16;9.80;71.30
78297;DHT22;67555;47.660;19.622;2024-01-06T09:34:42;9.90;71.30
78297;DHT22;67555;47.660;19.622;2024-01-06T09:37:08;9.90;71.20
78297;DHT22;67555;47.660;19.622;2024-01-06T09:39:35;9.90;71.20
78297;DHT22;67555;47.660;19.622;2024-01-06T09:42:00;9.90;71.30
78297;DHT22;67555;47.660;19.622;2024-01-06T09:44:26;10.00;71.20
78297;DHT22;67555;47.660;19.622;2024-01-06T09:46:52;10.10;71.10
78297;DHT22;67555;47.660;19.622;2024-01-06T09:49:23;10.10;70.90
78297;DHT22;67555;47.660;19.622;2024-01-06T09:51:53;10.20;70.70
78297;DHT22;67555;47.660;19.622;2024-01-06T09:54:23;10.30;70.70
78297;DHT22;67555;47.660;19.622;2024-01-06T09:56:54;10.30;70.60
78297;DHT22;67555;47.660;19.622;2024-01-06T09:59:21;10.40;70.60
78297;DHT22;67555;47.660;19.622;2024-01-06T10:01:47;10.40;70.70
78297;DHT22;67555;47.660;19.622;2024-01-06T10:04:16;10.50;70.40
78297;DHT22;67555;47.660;19.622;2024-01-06T10:06:42;10.50;70.40
78297;DHT22;67555;47.660;19.622;2024-01-06T10:09:07;10.50;70.40
78297;DHT22;67555;47.660;19.622;2024-01-06T10:11:35;10.60;70.20
78297;DHT22;67555;47.660;19.622;2024-01-06T10:14:05;10.80;69.90
78297;DHT22;67555;47.660;19.622;2024-01-06T10:16:31;10.80;69.60
78297;DHT22;67555;47.660;19.622;2024-01-06T10:18:59;10.90;69.50
78297;DHT22;67555;47.660;19.622;2024-01-06T10:21:25;10.90;69.40
78297;DHT22;67555;47.660;19.622;2024-01-06T10:23:51;10.90;69.20
78297;DHT22;67555;47.660;19.622;2024-01-06T10:26:19;10.90;69.30
78297;DHT22;67555;47.660;19.622;2024-01-06T10:28:44;10.80;69.40
78297;DHT22;67555;47.660;19.622;2024-01-06T10:31:10;10.80;69.50
78297;DHT22;67555;47.660;19.622;2024-01-06T10:33:37;10.70;69.60
78297;DHT22;67555;47.660;19.622;2024-01-06T10:36:03;10.60;69.70
78297;DHT22;67555;47.660;19.622;2024-01-06T10:38:30;10.60;69.70
78297;DHT22;67555;47.660;19.622;2024-01-06T10:41:00;10.60;69.80
78297;DHT22;67555;47.660;19.622;2024-01-06T10:43:33;10.50;69.90
78297;DHT22;67555;47.660;19.622;2024-01-06T10:46:09;10.50;70.00
78297;DHT22;67555;47.660;19.622;2024-01-06T10:48:40;10.60;69.90
78297;DHT22;67555;47.660;19.622;2024-01-06T10:51:09;10.70;69.90
78297;DHT22;67555;47.660;19.622;2024-01-06T10:53:35;10.70;69.80
78297;DHT22;67555;47.660;19.622;2024-01-06T10:56:03;10.70;69.90
78297;DHT22;67555;47.660;19.622;2024-01-06T10:58:30;10.80;69.90
78297;DHT22;67555;47.660;19.622;2024-01-06T11:00:57;10.70;70.00
78297;DHT22;67555;47.660;19.622;2024-01-06T11:03:24;10.70;70.00
78297;DHT22;67555;47.660;19.622;2024-01-06T11:05:50;10.80;70.10
78297;DHT22;67555;47.660;19.622;2024-01-06T11:08:19;10.70;70.10
78297;DHT22;67555;47.660;19.622;2024-01-06T11:10:47;10.80;70.00
78297;DHT22;67555;47.660;19.622;2024-01-06T11:13:16;10.70;70.20
78297;DHT22;67555;47.660;19.622;2024-01-06T11:15:50;10.50;70.50
78297;DHT22;67555;47.660;19.622;2024-01-06T11:23:38;10.60;70.80
78297;DHT22;67555;47.660;19.622;2024-01-06T11:26:05;10.50;70.90
78297;DHT22;67555;47.660;19.622;2024-01-06T11:28:32;10.50;71.20
78297;DHT22;67555;47.660;19.622;2024-01-06T11:31:08;10.40;71.50
78297;DHT22;67555;47.660;19.622;2024-01-06T11:33:44;10.30;71.80
78297;DHT22;67555;47.660;19.622;2024-01-06T11:36:10;10.30;72.10
78297;DHT22;67555;47.660;19.622;2024-01-06T11:38:39;10.40;72.00
78297;DHT22;67555;47.660;19.622;2024-01-06T11:41:08;10.40;72.00
78297;DHT22;67555;47.660;19.622;2024-01-06T11:43:35;10.40;72.00
78297;DHT22;67555;47.660;19.622;2024-01-06T11:46:05;10.40;72.10
78297;DHT22;67555;47.660;19.622;2024-01-06T11:48:32;10.50;72.00
78297;DHT22;67555;47.660;19.622;2024-01-06T11:50:58;10.50;72.00
78297;DHT22;67555;47.660;19.622;2024-01-06T11:53:26;10.60;72.00
78297;DHT22;67555;47.660;19.622;2024-01-06T11:55:53;10.60;71.90
78297;DHT22;67555;47.660;19.622;2024-01-06T11:58:19;10.60;71.90
78297;DHT22;67555;47.660;19.622;2024-01-06T12:00:55;10.60;71.80
78297;DHT22;67555;47.660;19.622;2024-01-06T12:03:21;10.50;72.10
78297;DHT22;67555;47.660;19.622;2024-01-06T12:06:00;10.40;72.40
78297;DHT22;67555;47.660;19.622;2024-01-06T12:08:26;10.40;72.60
78297;DHT22;67555;47.660;19.622;2024-01-06T12:11:02;10.40;72.70
78297;DHT22;67555;47.660;19.622;2024-01-06T12:13:28;10.40;72.90
78297;DHT22;67555;47.660;19.622;2024-01-06T12:15:54;10.50;72.80
78297;DHT22;67555;47.660;19.622;2024-01-06T12:18:20;10.50;72.80
78297;DHT22;67555;47.660;19.622;2024-01-06T12:20:46;10.50;72.80
78297;DHT22;67555;47.660;19.622;2024-01-06T12:23:12;10.50;72.80
78297;DHT22;67555;47.660;19.622;2024-01-06T12:25:37;10.50;72.80
78297;DHT22;67555;47.660;19.622;2024-01-06T12:28:05;10.50;73.00
78297;DHT22;67555;47.660;19.622;2024-01-06T12:30:33;10.60;73.00
78297;DHT22;67555;47.660;19.622;2024-01-06T12:33:00;10.60;73.10
78297;DHT22;67555;47.660;19.622;2024-01-06T12:35:26;10.60;73.10
78297;DHT22;67555;47.660;19.622;2024-01-06T12:37:52;10.60;73.00
78297;DHT22;67555;47.660;19.622;2024-01-06T12:40:18;10.70;73.00
78297;DHT22;67555;47.660;19.622;2024-01-06T12:42:45;10.70;73.00
78297;DHT22;67555;47.660;19.622;2024-01-06T12:45:11;10.80;72.90
78297;DHT22;67555;47.660;19.622;2024-01-06T12:47:39;10.80;72.80
78297;DHT22;67555;47.660;19.622;2024-01-06T12:50:06;10.90;72.70
78297;DHT22;67555;47.660;19.622;2024-01-06T12:52:31;10.90;72.60
78297;DHT22;67555;47.660;19.622;2024-01-06T12:54:59;10.90;72.70
78297;DHT22;67555;47.660;19.622;2024-01-06T12:57:24;10.90;72.60
78297;DHT22;67555;47.660;19.622;2024-01-06T12:59:50;10.90;72.50
78297;DHT22;67555;47.660;19.622;2024-01-06T13:02:16;11.00;72.40
78297;DHT22;67555;47.660;19.622;2024-01-06T13:04:43;10.90;72.50
78297;DHT22;67555;47.660;19.622;2024-01-06T13:07:09;10.80;72.60
78297;DHT22;67555;47.660;19.622;2024-01-06T13:09:34;10.80;72.70
78297;DHT22;67555;47.660;19.622;2024-01-06T13:12:00;10.70;72.90
78297;DHT22;67555;47.660;19.622;2024-01-06T13:14:27;10.60;73.20
78297;DHT22;67555;47.660;19.622;2024-01-06T13:16:54;10.60;73.30
78297;DHT22;67555;47.660;19.622;2024-01-06T13:19:20;10.60;73.30
78297;DHT22;67555;47.660;19.622;2024-01-06T13:21:46;10.50;73.30
78297;DHT22;67555;47.660;19.622;2024-01-06T13:24:13;10.50;73.40
78297;DHT22;67555;47.660;19.622;2024-01-06T13:26:38;10.50;73.50
78297;DHT22;67555;47.660;19.622;2024-01-06T13:29:04;10.40;73.60
78297;DHT22;67555;47.660;19.622;2024-01-06T13:31:30;10.40;73.60
78297;DHT22;67555;47.660;19.622;2024-01-06T13:33:56;10.40;73.60
78297;DHT22;67555;47.660;19.622;2024-01-06T13:36:22;10.40;73.50
78297;DHT22;67555;47.660;19.622;2024-01-06T13:38:48;10.40;73.60
78297;DHT22;67555;47.660;19.622;2024-01-06T13:41:15;10.40;73.60
78297;DHT22;67555;47.660;19.622;2024-01-06T13:43:40;10.40;73.70
78297;DHT22;67555;47.660;19.622;2024-01-06T13:46:06;10.40;73.70
78297;DHT22;67555;47.660;19.622;2024-01-06T13:48:33;10.30;73.70
78297;DHT22;67555;47.660;19.622;2024-01-06T13:50:59;10.30;73.90
78297;DHT22;67555;47.660;19.622;2024-01-06T13:53:25;10.20;74.20
78297;DHT22;67555;47.660;19.622;2024-01-06T13:55:51;10.20;74.30
78297;DHT22;67555;47.660;19.622;2024-01-06T13:58:16;10.20;74.30
78297;DHT22;67555;47.660;19.622;2024-01-06T14:00:44;10.20;74.30
78297;DHT22;67555;47.660;19.622;2024-01-06T14:03:10;10.10;74.40
78297;DHT22;67555;47.660;19.622;2024-01-06T14:05:36;10.20;74.40
78297;DHT22;67555;47.660;19.622;2024-01-06T14:08:06;10.10;74.60
78297;DHT22;67555;47.660;19.622;2024-01-06T14:10:31;10.10;74.70
78297;DHT22;67555;47.660;19.622;2024-01-06T14:12:57;10.10;74.60
78297;DHT22;67555;47.660;19.622;2024-01-06T14:15:23;10.10;74.70
78297;DHT22;67555;47.660;19.622;2024-01-06T14:17:49;10.00;74.80
78297;DHT22;67555;47.660;19.622;2024-01-06T14:20:18;10.00;75.10
78297;DHT22;67555;47.660;19.622;2024-01-06T14:22:45;10.00;75.30
78297;DHT22;67555;47.660;19.622;2024-01-06T14:25:12;10.00;75.30
78297;DHT22;67555;47.660;19.622;2024-01-06T14:27:38;10.00;75.40
78297;DHT22;67555;47.660;19.622;2024-01-06T14:30:04;10.00;75.40
78297;DHT22;67555;47.660;19.622;2024-01-06T14:32:32;10.00;75.40
78297;DHT22;67555;47.660;19.622;2024-01-06T14:34:58;10.00;75.50
78297;DHT22;67555;47.660;19.622;2024-01-06T14:37:24;9.90;75.60
78297;DHT22;67555;47.660;19.622;2024-01-06T14:39:50;9.90;75.70
78297;DHT22;67555;47.660;19.622;2024-01-06T14:42:15;9.90;75.70
78297;DHT22;67555;47.660;19.622;2024-01-06T14:44:45;9.80;75.80
78297;DHT22;67555;47.660;19.622;2024-01-06T14:47:11;9.90;75.90
78297;DHT22;67555;47.660;19.622;2024-01-06T14:49:38;9.90;75.80
78297;DHT22;67555;47.660;19.622;2024-01-06T14:52:04;9.90;75.80
78297;DHT22;67555;47.660;19.622;2024-01-06T14:54:30;9.90;75.80
78297;DHT22;67555;47.660;19.622;2024-01-06T14:56:57;9.80;76.00
78297;DHT22;67555;47.660;19.622;2024-01-06T14:59:24;9.90;76.00
78297;DHT22;67555;47.660;19.622;2024-01-06T15:01:49;10.00;75.90
78297;DHT22;67555;47.660;19.622;2024-01-06T15:04:15;10.00;75.80
78297;DHT22;67555;47.660;19.622;2024-01-06T15:06:44;10.00;75.70
78297;DHT22;67555;47.660;19.622;2024-01-06T15:09:10;10.00;75.60
78297;DHT22;67555;47.660;19.622;2024-01-06T15:11:35;10.10;75.50
78297;DHT22;67555;47.660;19.622;2024-01-06T15:14:01;10.00;75.50
78297;DHT22;67555;47.660;19.622;2024-01-06T15:16:31;10.10;75.40
78297;DHT22;67555;47.660;19.622;2024-01-06T15:18:56;10.10;75.50
78297;DHT22;67555;47.660;19.622;2024-01-06T15:21:25;10.00;75.50
78297;DHT22;67555;47.660;19.622;2024-01-06T15:23:52;10.00;75.70
78297;DHT22;67555;47.660;19.622;2024-01-06T15:26:24;10.00;75.80
78297;DHT22;67555;47.660;19.622;2024-01-06T15:28:51;10.00;75.80